sensor_id;sensor_type;location;lat;lon;timestamp;temperature;humidity
23738;DHT22;12049;51.068;3.688;2022-10-28T00:02:18;18.60;99.90
23738;DHT22;12049;51.068;3.688;2022-10-28T00:04:43;18.60;99.90
23738;DHT22;12049;51.068;3.688;2022-10-28T00:07:09;18.60;99.90
23738;DHT22;12049;51.068;3.688;2022-10-28T00:09:34;18.60;99.90
23738;DHT22;12049;51.068;3.688;2022-10-28T00:12:00;18.70;99.90
23738;DHT22;12049;51.068;3.688;2022-10-28T00:14:25;18.70;99.90
23738;DHT22;12049;51.068;3.688;2022-10-28T00:16:51;18.80;99.90
23738;DHT22;12049;51.068;3.688;2022-10-28T00:19:16;18.80;99.90
23738;DHT22;12049;51.068;3.688;2022-10-28T00:21:42;18.80;99.90
23738;DHT22;12049;51.068;3.688;2022-10-28T00:24:09;18.80;99.90
23738;DHT22;12049;51.068;3.688;2022-10-28T00:26:35;18.80;99.90
23738;DHT22;12049;51.068;3.688;2022-10-28T00:29:03;18.80;99.90
23738;DHT22;12049;51.068;3.688;2022-10-28T00:31:29;18.80;99.90
23738;DHT22;12049;51.068;3.688;2022-10-28T00:33:56;18.80;99.90
23738;DHT22;12049;51.068;3.688;2022-10-28T00:36:23;18.80;99.90
23738;DHT22;12049;51.068;3.688;2022-10-28T00:38:50;18.90;99.90
23738;DHT22;12049;51.068;3.688;2022-10-28T00:41:17;19.00;99.90
23738;DHT22;12049;51.068;3.688;2022-10-28T00:43:44;19.00;99.90
23738;DHT22;12049;51.068;3.688;2022-10-28T00:46:55;19.00;99.90
23738;DHT22;12049;51.068;3.688;2022-10-28T00:49:00;19.00;99.90
23738;DHT22;12049;51.068;3.688;2022-10-28T00:51:27;19.00;99.90
23738;DHT22;12049;51.068;3.688;2022-10-28T00:53:53;19.00;99.90
23738;DHT22;12049;51.068;3.688;2022-10-28T00:56:21;19.00;99.90
23738;DHT22;12049;51.068;3.688;2022-10-28T00:58:47;19.00;99.90
23738;DHT22;12049;51.068;3.688;2022-10-28T01:01:16;19.00;99.90
23738;DHT22;12049;51.068;3.688;2022-10-28T01:03:42;18.90;99.90
23738;DHT22;12049;51.068;3.688;2022-10-28T01:06:07;19.00;99.90
23738;DHT22;12049;51.068;3.688;2022-10-28T01:08:33;19.00;99.90
23738;DHT22;12049;51.068;3.688;2022-10-28T01:13:47;19.00;99.90
23738;DHT22;12049;51.068;3.688;2022-10-28T01:16:32;19.00;99.90
23738;DHT22;12049;51.068;3.688;2022-10-28T01:21:49;19.00;99.90
23738;DHT22;12049;51.068;3.688;2022-10-28T01:32:16;18.90;99.90
23738;DHT22;12049;51.068;3.688;2022-10-28T01:35:00;18.90;99.90
23738;DHT22;12049;51.068;3.688;2022-10-28T01:37:29;18.90;99.90
23738;DHT22;12049;51.068;3.688;2022-10-28T01:42:45;18.80;99.90
23738;DHT22;12049;51.068;3.688;2022-10-28T01:45:25;18.80;99.90
23738;DHT22;12049;51.068;3.688;2022-10-28T01:52:51;18.80;99.90
23738;DHT22;12049;51.068;3.688;2022-10-28T01:55:20;18.80;99.90
23738;DHT22;12049;51.068;3.688;2022-10-28T01:57:47;18.80;99.90
23738;DHT22;12049;51.068;3.688;2022-10-28T02:00:14;18.80;99.90
23738;DHT22;12049;51.068;3.688;2022-10-28T02:02:40;18.90;99.90
23738;DHT22;12049;51.068;3.688;2022-10-28T02:07:50;18.80;99.90
23738;DHT22;12049;51.068;3.688;2022-10-28T02:10:19;18.80;99.90
23738;DHT22;12049;51.068;3.688;2022-10-28T02:12:47;18.80;99.90
23738;DHT22;12049;51.068;3.688;2022-10-28T02:18:05;18.80;99.90
23738;DHT22;12049;51.068;3.688;2022-10-28T02:20:44;18.80;99.90
23738;DHT22;12049;51.068;3.688;2022-10-28T02:23:21;18.80;99.90
23738;DHT22;12049;51.068;3.688;2022-10-28T02:26:00;18.70;99.90
23738;DHT22;12049;51.068;3.688;2022-10-28T02:31:17;18.70;99.90
23738;DHT22;12049;51.068;3.688;2022-10-28T02:33:45;18.70;99.90
23738;DHT22;12049;51.068;3.688;2022-10-28T02:36:14;18.70;99.90
23738;DHT22;12049;51.068;3.688;2022-10-28T02:39:14;18.70;99.90
23738;DHT22;12049;51.068;3.688;2022-10-28T02:41:43;18.70;99.90
23738;DHT22;12049;51.068;3.688;2022-10-28T02:44:12;18.70;99.90
23738;DHT22;12049;51.068;3.688;2022-10-28T02:46:38;18.60;99.90
23738;DHT22;12049;51.068;3.688;2022-10-28T02:49:09;18.60;99.90
23738;DHT22;12049;51.068;3.688;2022-10-28T02:51:36;18.60;99.90
23738;DHT22;12049;51.068;3.688;2022-10-28T02:54:18;18.60;99.90
23738;DHT22;12049;51.068;3.688;2022-10-28T02:59:16;18.60;99.90
23738;DHT22;12049;51.068;3.688;2022-10-28T03:01:42;18.50;99.90
23738;DHT22;12049;51.068;3.688;2022-10-28T03:04:08;18.60;99.90
23738;DHT22;12049;51.068;3.688;2022-10-28T03:06:33;18.50;99.90
23738;DHT22;12049;51.068;3.688;2022-10-28T03:08:59;18.60;99.90
23738;DHT22;12049;51.068;3.688;2022-10-28T03:11:24;18.60;99.90
23738;DHT22;12049;51.068;3.688;2022-10-28T03:13:50;18.50;99.90
23738;DHT22;12049;51.068;3.688;2022-10-28T03:16:15;18.50;99.90
23738;DHT22;12049;51.068;3.688;2022-10-28T03:18:41;18.50;99.90
23738;DHT22;12049;51.068;3.688;2022-10-28T03:21:06;18.50;99.90
23738;DHT22;12049;51.068;3.688;2022-10-28T03:23:32;18.50;99.90
23738;DHT22;12049;51.068;3.688;2022-10-28T03:25:57;18.50;99.90
23738;DHT22;12049;51.068;3.688;2022-10-28T03:28:23;18.50;99.90
23738;DHT22;12049;51.068;3.688;2022-10-28T03:30:48;18.50;99.90
23738;DHT22;12049;51.068;3.688;2022-10-28T03:33:14;18.50;99.90
23738;DHT22;12049;51.068;3.688;2022-10-28T03:35:40;18.40;99.90
23738;DHT22;12049;51.068;3.688;2022-10-28T03:38:05;18.40;99.90
23738;DHT22;12049;51.068;3.688;2022-10-28T03:40:31;18.40;99.90
23738;DHT22;12049;51.068;3.688;2022-10-28T03:42:56;18.60;99.90
23738;DHT22;12049;51.068;3.688;2022-10-28T03:45:22;18.60;99.90
23738;DHT22;12049;51.068;3.688;2022-10-28T03:47:47;18.50;99.90
23738;DHT22;12049;51.068;3.688;2022-10-28T03:50:13;18.40;99.90
23738;DHT22;12049;51.068;3.688;2022-10-28T03:52:38;18.40;99.90
23738;DHT22;12049;51.068;3.688;2022-10-28T03:55:04;18.40;99.90
23738;DHT22;12049;51.068;3.688;2022-10-28T03:57:30;18.40;99.90
23738;DHT22;12049;51.068;3.688;2022-10-28T03:59:56;18.40;99.90
23738;DHT22;12049;51.068;3.688;2022-10-28T04:02:21;18.40;99.90
23738;DHT22;12049;51.068;3.688;2022-10-28T04:04:47;18.40;99.90
23738;DHT22;12049;51.068;3.688;2022-10-28T04:07:12;18.40;99.90
23738;DHT22;12049;51.068;3.688;2022-10-28T04:09:38;18.40;99.90
23738;DHT22;12049;51.068;3.688;2022-10-28T04:12:04;18.40;99.90
23738;DHT22;12049;51.068;3.688;2022-10-28T04:14:30;18.40;99.90
23738;DHT22;12049;51.068;3.688;2022-10-28T04:16:58;18.40;99.90
23738;DHT22;12049;51.068;3.688;2022-10-28T04:19:24;18.40;99.90
23738;DHT22;12049;51.068;3.688;2022-10-28T04:21:49;18.40;99.90
23738;DHT22;12049;51.068;3.688;2022-10-28T04:24:15;18.40;99.90
23738;DHT22;12049;51.068;3.688;2022-10-28T04:26:40;18.40;99.90
23738;DHT22;12049;51.068;3.688;2022-10-28T04:29:06;18.40;99.90
23738;DHT22;12049;51.068;3.688;2022-10-28T04:31:31;18.40;99.90
23738;DHT22;12049;51.068;3.688;2022-10-28T04:33:57;18.50;99.90
23738;DHT22;12049;51.068;3.688;2022-10-28T04:36:22;18.50;99.90
23738;DHT22;12049;51.068;3.688;2022-10-28T04:38:48;18.50;99.90
23738;DHT22;12049;51.068;3.688;2022-10-28T04:41:16;18.50;99.90
23738;DHT22;12049;51.068;3.688;2022-10-28T04:43:41;18.40;99.90
23738;DHT22;12049;51.068;3.688;2022-10-28T04:46:07;18.40;99.90
23738;DHT22;12049;51.068;3.688;2022-10-28T04:48:32;18.40;99.90
23738;DHT22;12049;51.068;3.688;2022-10-28T04:50:58;18.40;99.90
23738;DHT22;12049;51.068;3.688;2022-10-28T04:53:26;18.40;99.90
23738;DHT22;12049;51.068;3.688;2022-10-28T04:55:55;18.40;99.90
23738;DHT22;12049;51.068;3.688;2022-10-28T04:58:21;18.40;99.90
23738;DHT22;12049;51.068;3.688;2022-10-28T05:00:46;18.40;99.90
23738;DHT22;12049;51.068;3.688;2022-10-28T05:03:12;18.30;99.90
23738;DHT22;12049;51.068;3.688;2022-10-28T05:05:37;18.30;99.90
23738;DHT22;12049;51.068;3.688;2022-10-28T05:08:05;18.30;99.90
23738;DHT22;12049;51.068;3.688;2022-10-28T05:10:30;18.30;99.90
23738;DHT22;12049;51.068;3.688;2022-10-28T05:12:56;18.30;99.90
23738;DHT22;12049;51.068;3.688;2022-10-28T05:15:21;18.30;99.90
23738;DHT22;12049;51.068;3.688;2022-10-28T05:17:47;18.30;99.90
23738;DHT22;12049;51.068;3.688;2022-10-28T05:20:13;18.30;99.90
23738;DHT22;12049;51.068;3.688;2022-10-28T05:22:49;18.30;99.90
23738;DHT22;12049;51.068;3.688;2022-10-28T05:25:15;18.30;99.90
23738;DHT22;12049;51.068;3.688;2022-10-28T05:27:41;18.30;99.90
23738;DHT22;12049;51.068;3.688;2022-10-28T05:30:07;18.30;99.90
23738;DHT22;12049;51.068;3.688;2022-10-28T05:32:33;18.30;99.90
23738;DHT22;12049;51.068;3.688;2022-10-28T05:34:58;18.30;99.90
23738;DHT22;12049;51.068;3.688;2022-10-28T05:37:23;18.30;99.90
23738;DHT22;12049;51.068;3.688;2022-10-28T05:39:49;18.30;99.90
23738;DHT22;12049;51.068;3.688;2022-10-28T05:42:15;18.30;99.90
23738;DHT22;12049;51.068;3.688;2022-10-28T05:44:40;18.40;99.90
23738;DHT22;12049;51.068;3.688;2022-10-28T05:47:06;18.40;99.90
23738;DHT22;12049;51.068;3.688;2022-10-28T05:49:31;18.40;99.90
23738;DHT22;12049;51.068;3.688;2022-10-28T05:51:57;18.30;99.90
23738;DHT22;12049;51.068;3.688;2022-10-28T05:54:22;18.30;99.90
23738;DHT22;12049;51.068;3.688;2022-10-28T05:56:48;18.20;99.90
23738;DHT22;12049;51.068;3.688;2022-10-28T05:59:13;18.20;99.90
23738;DHT22;12049;51.068;3.688;2022-10-28T06:01:38;18.20;99.90
23738;DHT22;12049;51.068;3.688;2022-10-28T06:04:04;18.20;99.90
23738;DHT22;12049;51.068;3.688;2022-10-28T06:06:30;18.20;99.90
23738;DHT22;12049;51.068;3.688;2022-10-28T06:08:56;18.20;99.90
23738;DHT22;12049;51.068;3.688;2022-10-28T06:11:22;18.10;99.90
23738;DHT22;12049;51.068;3.688;2022-10-28T06:13:47;18.10;99.90
23738;DHT22;12049;51.068;3.688;2022-10-28T06:16:13;18.10;99.90
23738;DHT22;12049;51.068;3.688;2022-10-28T06:18:38;18.10;99.90
23738;DHT22;12049;51.068;3.688;2022-10-28T06:21:04;18.10;99.90
23738;DHT22;12049;51.068;3.688;2022-10-28T06:23:29;18.10;99.90
23738;DHT22;12049;51.068;3.688;2022-10-28T06:25:58;18.10;99.90
23738;DHT22;12049;51.068;3.688;2022-10-28T06:28:24;18.00;99.90
23738;DHT22;12049;51.068;3.688;2022-10-28T06:30:50;18.10;99.90
23738;DHT22;12049;51.068;3.688;2022-10-28T06:33:16;18.10;99.90
23738;DHT22;12049;51.068;3.688;2022-10-28T06:35:41;18.10;99.90
23738;DHT22;12049;51.068;3.688;2022-10-28T06:38:07;18.10;99.90
23738;DHT22;12049;51.068;3.688;2022-10-28T06:40:32;18.00;99.90
23738;DHT22;12049;51.068;3.688;2022-10-28T06:42:58;18.00;99.90
23738;DHT22;12049;51.068;3.688;2022-10-28T06:45:24;18.10;99.90
23738;DHT22;12049;51.068;3.688;2022-10-28T06:47:53;18.10;99.90
23738;DHT22;12049;51.068;3.688;2022-10-28T06:50:19;18.30;99.90
23738;DHT22;12049;51.068;3.688;2022-10-28T06:52:44;18.20;99.90
23738;DHT22;12049;51.068;3.688;2022-10-28T06:55:10;18.20;99.90
23738;DHT22;12049;51.068;3.688;2022-10-28T06:57:35;18.30;99.90
23738;DHT22;12049;51.068;3.688;2022-10-28T07:00:10;18.30;99.90
23738;DHT22;12049;51.068;3.688;2022-10-28T07:02:38;18.40;99.90
23738;DHT22;12049;51.068;3.688;2022-10-28T07:05:07;18.40;99.90
23738;DHT22;12049;51.068;3.688;2022-10-28T07:07:43;18.40;99.90
23738;DHT22;12049;51.068;3.688;2022-10-28T07:10:30;18.40;99.90
23738;DHT22;12049;51.068;3.688;2022-10-28T07:12:59;18.40;99.90
23738;DHT22;12049;51.068;3.688;2022-10-28T07:15:25;18.40;99.90
23738;DHT22;12049;51.068;3.688;2022-10-28T07:17:54;18.50;99.90
23738;DHT22;12049;51.068;3.688;2022-10-28T07:20:23;18.50;99.90
23738;DHT22;12049;51.068;3.688;2022-10-28T07:22:55;18.50;99.90
23738;DHT22;12049;51.068;3.688;2022-10-28T07:25:21;18.70;99.90
23738;DHT22;12049;51.068;3.688;2022-10-28T07:27:46;18.60;99.90
23738;DHT22;12049;51.068;3.688;2022-10-28T07:30:12;18.70;99.90
23738;DHT22;12049;51.068;3.688;2022-10-28T07:32:38;18.70;99.90
23738;DHT22;12049;51.068;3.688;2022-10-28T07:35:03;18.70;99.90
23738;DHT22;12049;51.068;3.688;2022-10-28T07:37:29;18.70;99.90
23738;DHT22;12049;51.068;3.688;2022-10-28T07:39:54;18.80;99.90
23738;DHT22;12049;51.068;3.688;2022-10-28T07:42:20;18.80;99.90
23738;DHT22;12049;51.068;3.688;2022-10-28T07:44:48;18.80;99.90
23738;DHT22;12049;51.068;3.688;2022-10-28T07:47:14;18.80;99.90
23738;DHT22;12049;51.068;3.688;2022-10-28T07:49:47;18.90;99.90
23738;DHT22;12049;51.068;3.688;2022-10-28T07:52:12;19.10;99.90
23738;DHT22;12049;51.068;3.688;2022-10-28T07:54:38;19.10;99.90
23738;DHT22;12049;51.068;3.688;2022-10-28T07:57:04;19.10;99.90
23738;DHT22;12049;51.068;3.688;2022-10-28T07:59:36;19.10;99.90
23738;DHT22;12049;51.068;3.688;2022-10-28T08:02:02;19.10;99.90
23738;DHT22;12049;51.068;3.688;2022-10-28T08:04:28;19.10;99.90
23738;DHT22;12049;51.068;3.688;2022-10-28T08:06:53;19.20;99.90
23738;DHT22;12049;51.068;3.688;2022-10-28T08:09:19;19.30;99.90
23738;DHT22;12049;51.068;3.688;2022-10-28T08:11:44;19.40;99.90
23738;DHT22;12049;51.068;3.688;2022-10-28T08:14:10;19.50;99.90
23738;DHT22;12049;51.068;3.688;2022-10-28T08:16:35;19.50;99.90
23738;DHT22;12049;51.068;3.688;2022-10-28T08:19:01;19.70;99.90
23738;DHT22;12049;51.068;3.688;2022-10-28T08:21:26;19.80;99.90
23738;DHT22;12049;51.068;3.688;2022-10-28T08:23:52;19.90;99.90
23738;DHT22;12049;51.068;3.688;2022-10-28T08:26:18;20.20;99.90
23738;DHT22;12049;51.068;3.688;2022-10-28T08:28:44;20.40;99.90
23738;DHT22;12049;51.068;3.688;2022-10-28T08:31:09;20.50;99.90
23738;DHT22;12049;51.068;3.688;2022-10-28T08:33:40;20.60;99.90
23738;DHT22;12049;51.068;3.688;2022-10-28T08:36:08;20.80;99.90
23738;DHT22;12049;51.068;3.688;2022-10-28T08:38:36;20.90;99.90
23738;DHT22;12049;51.068;3.688;2022-10-28T08:49:00;21.40;99.90
23738;DHT22;12049;51.068;3.688;2022-10-28T08:53:56;21.70;99.90
23738;DHT22;12049;51.068;3.688;2022-10-28T08:56:27;21.80;99.90
23738;DHT22;12049;51.068;3.688;2022-10-28T08:58:54;21.90;99.90
23738;DHT22;12049;51.068;3.688;2022-10-28T09:01:36;21.90;99.90
23738;DHT22;12049;51.068;3.688;2022-10-28T09:04:04;22.10;99.90
23738;DHT22;12049;51.068;3.688;2022-10-28T09:06:31;22.40;99.90
23738;DHT22;12049;51.068;3.688;2022-10-28T09:08:57;22.70;99.90
23738;DHT22;12049;51.068;3.688;2022-10-28T09:13:58;23.90;99.90
23738;DHT22;12049;51.068;3.688;2022-10-28T09:18:53;25.30;99.90
23738;DHT22;12049;51.068;3.688;2022-10-28T09:23:50;26.00;99.90
23738;DHT22;12049;51.068;3.688;2022-10-28T09:34:25;28.00;99.90
23738;DHT22;12049;51.068;3.688;2022-10-28T09:36:59;28.50;99.90
23738;DHT22;12049;51.068;3.688;2022-10-28T09:39:29;28.70;99.90
23738;DHT22;12049;51.068;3.688;2022-10-28T09:41:56;28.90;99.90
23738;DHT22;12049;51.068;3.688;2022-10-28T09:44:43;29.20;99.90
23738;DHT22;12049;51.068;3.688;2022-10-28T09:47:14;29.50;99.90
23738;DHT22;12049;51.068;3.688;2022-10-28T09:49:41;29.90;99.90
23738;DHT22;12049;51.068;3.688;2022-10-28T09:52:12;29.50;99.90
23738;DHT22;12049;51.068;3.688;2022-10-28T09:54:41;29.80;99.90
23738;DHT22;12049;51.068;3.688;2022-10-28T09:57:08;29.50;99.90
23738;DHT22;12049;51.068;3.688;2022-10-28T09:59:33;28.90;99.90
23738;DHT22;12049;51.068;3.688;2022-10-28T10:01:59;28.40;99.90
23738;DHT22;12049;51.068;3.688;2022-10-28T10:04:25;27.80;99.90
23738;DHT22;12049;51.068;3.688;2022-10-28T10:06:52;27.10;99.90
23738;DHT22;12049;51.068;3.688;2022-10-28T10:09:28;26.40;99.90
23738;DHT22;12049;51.068;3.688;2022-10-28T10:11:57;25.80;99.90
23738;DHT22;12049;51.068;3.688;2022-10-28T10:14:57;25.30;99.90
23738;DHT22;12049;51.068;3.688;2022-10-28T10:17:30;24.80;99.90
23738;DHT22;12049;51.068;3.688;2022-10-28T10:22:29;24.60;99.90
23738;DHT22;12049;51.068;3.688;2022-10-28T10:24:55;24.70;99.90
23738;DHT22;12049;51.068;3.688;2022-10-28T10:27:21;24.70;99.90
23738;DHT22;12049;51.068;3.688;2022-10-28T10:29:47;24.70;99.90
23738;DHT22;12049;51.068;3.688;2022-10-28T10:32:27;24.80;99.90
23738;DHT22;12049;51.068;3.688;2022-10-28T10:34:55;24.60;99.90
23738;DHT22;12049;51.068;3.688;2022-10-28T10:37:22;24.40;99.90
23738;DHT22;12049;51.068;3.688;2022-10-28T10:42:43;24.10;99.90
23738;DHT22;12049;51.068;3.688;2022-10-28T10:47:40;24.30;99.90
23738;DHT22;12049;51.068;3.688;2022-10-28T10:50:39;24.40;99.90
23738;DHT22;12049;51.068;3.688;2022-10-28T10:52:58;24.50;99.90
23738;DHT22;12049;51.068;3.688;2022-10-28T10:55:34;24.80;99.90
23738;DHT22;12049;51.068;3.688;2022-10-28T10:58:00;24.80;99.90
23738;DHT22;12049;51.068;3.688;2022-10-28T11:00:31;24.60;99.90
23738;DHT22;12049;51.068;3.688;2022-10-28T11:02:58;24.60;99.90
23738;DHT22;12049;51.068;3.688;2022-10-28T11:05:24;24.60;99.90
23738;DHT22;12049;51.068;3.688;2022-10-28T11:07:49;25.00;99.90
23738;DHT22;12049;51.068;3.688;2022-10-28T11:10:23;25.00;99.90
23738;DHT22;12049;51.068;3.688;2022-10-28T11:12:50;25.50;99.90
23738;DHT22;12049;51.068;3.688;2022-10-28T11:17:52;25.90;99.90
23738;DHT22;12049;51.068;3.688;2022-10-28T11:20:21;25.70;99.90
23738;DHT22;12049;51.068;3.688;2022-10-28T11:22:55;25.80;99.90
23738;DHT22;12049;51.068;3.688;2022-10-28T11:30:38;26.00;99.90
23738;DHT22;12049;51.068;3.688;2022-10-28T11:33:13;25.90;99.90
23738;DHT22;12049;51.068;3.688;2022-10-28T11:56:12;25.50;99.90
23738;DHT22;12049;51.068;3.688;2022-10-28T12:04:03;25.80;99.90
23738;DHT22;12049;51.068;3.688;2022-10-28T12:09:08;26.00;99.90
23738;DHT22;12049;51.068;3.688;2022-10-28T12:14:21;25.70;99.90
23738;DHT22;12049;51.068;3.688;2022-10-28T12:19:27;25.70;99.90
23738;DHT22;12049;51.068;3.688;2022-10-28T12:22:09;25.70;99.90
23738;DHT22;12049;51.068;3.688;2022-10-28T12:24:37;25.70;99.90
23738;DHT22;12049;51.068;3.688;2022-10-28T12:27:11;25.60;99.90
23738;DHT22;12049;51.068;3.688;2022-10-28T12:29:39;25.50;99.90
23738;DHT22;12049;51.068;3.688;2022-10-28T12:34:35;25.50;99.90
23738;DHT22;12049;51.068;3.688;2022-10-28T12:37:07;25.70;99.90
23738;DHT22;12049;51.068;3.688;2022-10-28T12:42:30;26.00;99.90
23738;DHT22;12049;51.068;3.688;2022-10-28T12:44:57;26.10;99.90
23738;DHT22;12049;51.068;3.688;2022-10-28T12:47:26;26.20;99.90
23738;DHT22;12049;51.068;3.688;2022-10-28T12:57:37;26.20;99.90
23738;DHT22;12049;51.068;3.688;2022-10-28T13:00:14;26.00;99.90
23738;DHT22;12049;51.068;3.688;2022-10-28T13:03:01;25.80;99.90
23738;DHT22;12049;51.068;3.688;2022-10-28T13:05:33;25.70;99.90
23738;DHT22;12049;51.068;3.688;2022-10-28T13:10:47;25.00;99.90
23738;DHT22;12049;51.068;3.688;2022-10-28T13:16:16;24.60;99.90
23738;DHT22;12049;51.068;3.688;2022-10-28T13:21:30;24.60;99.90
23738;DHT22;12049;51.068;3.688;2022-10-28T13:26:28;24.60;99.90
23738;DHT22;12049;51.068;3.688;2022-10-28T13:28:57;24.60;99.90
23738;DHT22;12049;51.068;3.688;2022-10-28T13:31:33;24.50;99.90
23738;DHT22;12049;51.068;3.688;2022-10-28T13:33:59;24.60;99.90
23738;DHT22;12049;51.068;3.688;2022-10-28T13:36:29;24.70;99.90
23738;DHT22;12049;51.068;3.688;2022-10-28T13:38:59;24.80;99.90
23738;DHT22;12049;51.068;3.688;2022-10-28T13:41:27;24.70;99.90
23738;DHT22;12049;51.068;3.688;2022-10-28T13:49:36;24.60;99.90
23738;DHT22;12049;51.068;3.688;2022-10-28T13:57:05;24.10;99.90
23738;DHT22;12049;51.068;3.688;2022-10-28T13:59:37;23.90;99.90
23738;DHT22;12049;51.068;3.688;2022-10-28T14:02:15;23.90;99.90
23738;DHT22;12049;51.068;3.688;2022-10-28T14:04:42;23.90;99.90
23738;DHT22;12049;51.068;3.688;2022-10-28T14:09:34;23.80;99.90
23738;DHT22;12049;51.068;3.688;2022-10-28T14:14:29;23.70;99.90
23738;DHT22;12049;51.068;3.688;2022-10-28T14:16:55;23.60;99.90
23738;DHT22;12049;51.068;3.688;2022-10-28T14:19:21;23.60;99.90
23738;DHT22;12049;51.068;3.688;2022-10-28T14:24:13;23.60;99.90
23738;DHT22;12049;51.068;3.688;2022-10-28T14:29:28;23.50;99.90
23738;DHT22;12049;51.068;3.688;2022-10-28T14:31:54;23.50;99.90
23738;DHT22;12049;51.068;3.688;2022-10-28T14:36:52;23.40;99.90
23738;DHT22;12049;51.068;3.688;2022-10-28T14:49:54;23.10;99.90
23738;DHT22;12049;51.068;3.688;2022-10-28T14:52:21;23.10;99.90
23738;DHT22;12049;51.068;3.688;2022-10-28T14:57:13;23.00;99.90
23738;DHT22;12049;51.068;3.688;2022-10-28T14:59:41;23.00;99.90
23738;DHT22;12049;51.068;3.688;2022-10-28T15:02:14;22.90;99.90
23738;DHT22;12049;51.068;3.688;2022-10-28T15:04:41;22.90;99.90
23738;DHT22;12049;51.068;3.688;2022-10-28T15:07:17;22.80;99.90
23738;DHT22;12049;51.068;3.688;2022-10-28T15:09:44;22.80;99.90
23738;DHT22;12049;51.068;3.688;2022-10-28T15:12:14;22.60;99.90
23738;DHT22;12049;51.068;3.688;2022-10-28T15:14:44;22.60;99.90
23738;DHT22;12049;51.068;3.688;2022-10-28T15:17:12;22.50;99.90
23738;DHT22;12049;51.068;3.688;2022-10-28T15:19:38;22.50;99.90
23738;DHT22;12049;51.068;3.688;2022-10-28T15:22:14;22.40;99.90
23738;DHT22;12049;51.068;3.688;2022-10-28T15:24:40;22.30;99.90
23738;DHT22;12049;51.068;3.688;2022-10-28T15:27:08;22.30;99.90
23738;DHT22;12049;51.068;3.688;2022-10-28T15:29:35;22.20;99.90
23738;DHT22;12049;51.068;3.688;2022-10-28T15:34:36;22.10;99.90
23738;DHT22;12049;51.068;3.688;2022-10-28T15:37:02;22.00;99.90
23738;DHT22;12049;51.068;3.688;2022-10-28T15:39:32;22.10;99.90
23738;DHT22;12049;51.068;3.688;2022-10-28T15:41:58;22.10;99.90
23738;DHT22;12049;51.068;3.688;2022-10-28T15:44:26;22.00;99.90
23738;DHT22;12049;51.068;3.688;2022-10-28T15:46:54;22.00;99.90
23738;DHT22;12049;51.068;3.688;2022-10-28T15:49:31;21.90;99.90
23738;DHT22;12049;51.068;3.688;2022-10-28T15:54:57;21.90;99.90
23738;DHT22;12049;51.068;3.688;2022-10-28T15:57:24;21.90;99.90
23738;DHT22;12049;51.068;3.688;2022-10-28T16:02:40;21.80;99.90
23738;DHT22;12049;51.068;3.688;2022-10-28T16:07:52;21.70;99.90
23738;DHT22;12049;51.068;3.688;2022-10-28T16:10:17;21.70;99.90
23738;DHT22;12049;51.068;3.688;2022-10-28T16:12:43;21.60;99.90
23738;DHT22;12049;51.068;3.688;2022-10-28T16:15:12;21.60;99.90
23738;DHT22;12049;51.068;3.688;2022-10-28T16:17:39;21.50;99.90
23738;DHT22;12049;51.068;3.688;2022-10-28T16:20:09;21.40;99.90
23738;DHT22;12049;51.068;3.688;2022-10-28T16:22:36;21.30;99.90
23738;DHT22;12049;51.068;3.688;2022-10-28T16:25:17;21.30;99.90
23738;DHT22;12049;51.068;3.688;2022-10-28T16:27:43;21.30;99.90
23738;DHT22;12049;51.068;3.688;2022-10-28T16:30:08;21.20;99.90
23738;DHT22;12049;51.068;3.688;2022-10-28T16:32:38;21.10;99.90
23738;DHT22;12049;51.068;3.688;2022-10-28T16:35:11;21.10;99.90
23738;DHT22;12049;51.068;3.688;2022-10-28T16:37:38;21.00;99.90
23738;DHT22;12049;51.068;3.688;2022-10-28T16:40:04;21.00;99.90
23738;DHT22;12049;51.068;3.688;2022-10-28T16:42:30;21.00;99.90
23738;DHT22;12049;51.068;3.688;2022-10-28T16:44:56;20.90;99.90
23738;DHT22;12049;51.068;3.688;2022-10-28T16:47:22;20.90;99.90
23738;DHT22;12049;51.068;3.688;2022-10-28T16:49:49;20.90;99.90
23738;DHT22;12049;51.068;3.688;2022-10-28T16:52:16;20.80;99.90
23738;DHT22;12049;51.068;3.688;2022-10-28T16:54:42;20.80;99.90
23738;DHT22;12049;51.068;3.688;2022-10-28T16:57:07;20.80;99.90
23738;DHT22;12049;51.068;3.688;2022-10-28T16:59:33;20.70;99.90
23738;DHT22;12049;51.068;3.688;2022-10-28T17:01:58;20.70;99.90
23738;DHT22;12049;51.068;3.688;2022-10-28T17:04:24;20.60;99.90
23738;DHT22;12049;51.068;3.688;2022-10-28T17:06:50;20.60;99.90
23738;DHT22;12049;51.068;3.688;2022-10-28T17:09:16;20.50;99.90
23738;DHT22;12049;51.068;3.688;2022-10-28T17:11:41;20.50;99.90
23738;DHT22;12049;51.068;3.688;2022-10-28T17:14:07;20.50;99.90
23738;DHT22;12049;51.068;3.688;2022-10-28T17:16:33;20.40;99.90
23738;DHT22;12049;51.068;3.688;2022-10-28T17:18:58;20.40;99.90
23738;DHT22;12049;51.068;3.688;2022-10-28T17:21:24;20.40;99.90
23738;DHT22;12049;51.068;3.688;2022-10-28T17:23:50;20.30;99.90
23738;DHT22;12049;51.068;3.688;2022-10-28T17:26:15;20.30;99.90
23738;DHT22;12049;51.068;3.688;2022-10-28T17:28:41;20.30;99.90
23738;DHT22;12049;51.068;3.688;2022-10-28T17:31:06;20.30;99.90
23738;DHT22;12049;51.068;3.688;2022-10-28T17:33:32;20.30;99.90
23738;DHT22;12049;51.068;3.688;2022-10-28T17:36:04;20.30;99.90
23738;DHT22;12049;51.068;3.688;2022-10-28T17:38:30;20.30;99.90
23738;DHT22;12049;51.068;3.688;2022-10-28T17:40:55;20.20;99.90
23738;DHT22;12049;51.068;3.688;2022-10-28T17:43:21;20.20;99.90
23738;DHT22;12049;51.068;3.688;2022-10-28T17:45:47;20.10;99.90
23738;DHT22;12049;51.068;3.688;2022-10-28T17:48:12;20.10;99.90
23738;DHT22;12049;51.068;3.688;2022-10-28T17:50:38;20.10;99.90
23738;DHT22;12049;51.068;3.688;2022-10-28T17:53:03;20.10;99.90
23738;DHT22;12049;51.068;3.688;2022-10-28T17:55:29;20.10;99.90
23738;DHT22;12049;51.068;3.688;2022-10-28T17:57:55;20.10;99.90
23738;DHT22;12049;51.068;3.688;2022-10-28T18:00:21;20.00;99.90
23738;DHT22;12049;51.068;3.688;2022-10-28T18:02:46;20.00;99.90
23738;DHT22;12049;51.068;3.688;2022-10-28T18:05:12;19.90;99.90
23738;DHT22;12049;51.068;3.688;2022-10-28T18:07:37;19.90;99.90
23738;DHT22;12049;51.068;3.688;2022-10-28T18:10:03;19.80;99.90
23738;DHT22;12049;51.068;3.688;2022-10-28T18:12:29;19.80;99.90
23738;DHT22;12049;51.068;3.688;2022-10-28T18:14:55;19.70;99.90
23738;DHT22;12049;51.068;3.688;2022-10-28T18:17:20;19.70;99.90
23738;DHT22;12049;51.068;3.688;2022-10-28T18:19:46;19.70;99.90
23738;DHT22;12049;51.068;3.688;2022-10-28T18:22:11;19.60;99.90
23738;DHT22;12049;51.068;3.688;2022-10-28T18:24:37;19.60;99.90
23738;DHT22;12049;51.068;3.688;2022-10-28T18:27:02;19.50;99.90
23738;DHT22;12049;51.068;3.688;2022-10-28T18:29:28;19.50;99.90
23738;DHT22;12049;51.068;3.688;2022-10-28T18:31:53;19.50;99.90
23738;DHT22;12049;51.068;3.688;2022-10-28T18:34:21;19.50;99.90